Time;durP1;ratioP1;P1;durP2;ratioP2;P2;SDS_P1;SDS_P2;PMS_P1;PMS_P2;Temp;Humidity;BMP_temperature;BMP_pressure;BME280_temperature;BME280_humidity;BME280_pressure;Samples;Min_cycle;Max_cycle;Signal;HPM_P1;HPM_P2
2023/08/15 00:00:37;;;;;;;4.53;4.13;;;25.40;69.30;;;;;;4975709;28;20207;-56
2023/08/15 00:03:05;;;;;;;4.70;4.30;;;25.40;69.40;;;;;;4993306;28;20244;-56
2023/08/15 00:05:32;;;;;;;4.97;3.97;;;25.30;69.20;;;;;;4975743;28;20197;-56
2023/08/15 00:08:03;;;;;;;4.88;4.10;;;25.30;69.30;;;;;;4993245;28;20724;-56
2023/08/15 00:10:30;;;;;;;4.72;3.83;;;25.30;69.30;;;;;;4993154;28;20688;-56
2023/08/15 00:12:57;;;;;;;4.57;4.18;;;25.30;69.40;;;;;;4993249;28;20272;-56
2023/08/15 00:15:25;;;;;;;4.55;4.15;;;25.30;69.30;;;;;;4975720;28;20336;-56
2023/08/15 00:17:53;;;;;;;4.20;3.90;;;25.30;70.10;;;;;;4993434;28;20192;-56
2023/08/15 00:20:20;;;;;;;4.10;3.78;;;25.30;69.30;;;;;;4975606;28;20196;-56
2023/08/15 00:22:47;;;;;;;4.97;4.07;;;25.30;69.40;;;;;;4975676;28;20220;-56
2023/08/15 00:25:14;;;;;;;4.78;4.38;;;25.30;69.40;;;;;;4993140;28;20189;-56
2023/08/15 00:27:41;;;;;;;4.80;4.40;;;25.30;69.40;;;;;;4975884;28;20255;-56
2023/08/15 00:30:10;;;;;;;4.53;4.22;;;25.20;69.30;;;;;;4976376;28;20574;-56
2023/08/15 00:32:38;;;;;;;4.50;3.83;;;25.20;69.40;;;;;;4979084;28;20323;-56
2023/08/15 00:35:10;;;;;;;4.80;4.40;;;25.20;69.50;;;;;;5039682;22;20724;-83
2023/08/15 00:37:37;;;;;;;4.65;4.00;;;25.20;69.40;;;;;;5001842;28;20212;-83
2023/08/15 00:40:06;;;;;;;4.45;4.00;;;25.20;69.40;;;;;;4987857;28;20211;-83
2023/08/15 00:42:33;;;;;;;5.13;4.18;;;25.20;69.40;;;;;;5024297;28;20184;-83
2023/08/15 00:45:00;;;;;;;4.70;4.25;;;25.20;69.40;;;;;;5024227;28;20157;-83
2023/08/15 00:47:27;;;;;;;4.72;4.28;;;25.20;69.40;;;;;;5012077;28;20681;-83
2023/08/15 00:49:54;;;;;;;4.82;4.40;;;25.20;69.40;;;;;;4984535;28;20199;-83
2023/08/15 00:52:23;;;;;;;4.57;4.18;;;25.20;69.40;;;;;;5000058;28;20246;-83
2023/08/15 00:54:50;;;;;;;4.30;3.90;;;25.20;69.30;;;;;;4999617;28;20200;-83
2023/08/15 00:57:18;;;;;;;4.10;3.78;;;25.20;70.10;;;;;;4999827;28;20299;-83
2023/08/15 00:59:45;;;;;;;4.55;4.25;;;25.20;69.30;;;;;;4999703;28;20637;-84
2023/08/15 01:02:12;;;;;;;4.88;4.40;;;25.20;69.30;;;;;;4999713;28;20310;-83
2023/08/15 01:04:39;;;;;;;4.60;4.20;;;25.20;69.30;;;;;;5000008;28;20219;-83
2023/08/15 01:07:07;;;;;;;4.55;4.25;;;25.20;69.30;;;;;;4999620;28;20196;-84
2023/08/15 01:09:35;;;;;;;4.97;4.47;;;25.10;69.20;;;;;;4999775;28;20670;-83
2023/08/15 01:12:11;;;;;;;4.40;4.10;;;25.20;69.30;;;;;;4999356;28;20254;-83
2023/08/15 01:14:44;;;;;;;5.45;4.25;;;25.20;69.40;;;;;;4999208;28;20202;-83
2023/08/15 01:17:12;;;;;;;4.65;4.25;;;25.20;69.40;;;;;;4999124;28;20192;-83
2023/08/15 01:19:42;;;;;;;5.78;4.20;;;25.20;69.40;;;;;;4999269;28;20567;-83
2023/08/15 01:22:15;;;;;;;6.05;4.45;;;25.10;69.30;;;;;;4999545;28;20686;-83
2023/08/15 01:24:43;;;;;;;4.15;3.85;;;25.10;69.40;;;;;;4999820;28;20228;-83
2023/08/15 01:27:11;;;;;;;4.53;4.00;;;25.10;69.30;;;;;;4999826;28;20220;-83
2023/08/15 01:29:39;;;;;;;5.10;4.38;;;25.10;69.40;;;;;;4999489;28;20550;-83
2023/08/15 01:32:11;;;;;;;5.85;4.20;;;25.10;69.40;;;;;;4999335;28;20270;-83
2023/08/15 01:34:41;;;;;;;4.65;4.25;;;25.10;69.30;;;;;;4999824;28;20200;-83
2023/08/15 01:37:10;;;;;;;4.40;4.05;;;25.10;69.40;;;;;;4999214;28;20199;-83
2023/08/15 01:39:38;;;;;;;4.95;4.45;;;25.10;69.40;;;;;;4999052;28;20208;-83
2023/08/15 01:42:07;;;;;;;4.38;4.07;;;25.10;69.30;;;;;;4998552;28;20226;-84
2023/08/15 01:44:34;;;;;;;5.03;4.70;;;25.10;69.40;;;;;;4998670;28;20220;-83
2023/08/15 01:47:01;;;;;;;6.00;4.50;;;25.10;69.40;;;;;;4982454;28;20254;-83
2023/08/15 01:49:28;;;;;;;4.78;4.20;;;25.10;69.40;;;;;;4998440;28;20201;-83
2023/08/15 01:51:57;;;;;;;5.50;4.72;;;25.10;69.40;;;;;;4998172;28;20220;-83
2023/08/15 01:54:25;;;;;;;4.90;4.47;;;25.10;69.40;;;;;;4998579;28;20206;-82
2023/08/15 01:56:53;;;;;;;4.53;4.10;;;25.00;69.30;;;;;;4982904;28;20262;-83
2023/08/15 01:59:21;;;;;;;4.93;4.50;;;25.00;69.30;;;;;;4998572;28;20203;-83
2023/08/15 02:01:48;;;;;;;4.68;4.18;;;25.00;69.40;;;;;;4999834;28;20686;-83
2023/08/15 02:04:15;;;;;;;5.10;4.60;;;25.00;69.40;;;;;;4999420;28;20212;-83
2023/08/15 02:06:43;;;;;;;4.80;4.40;;;25.00;69.40;;;;;;4982574;28;20210;-82
2023/08/15 02:09:10;;;;;;;4.82;4.35;;;25.00;69.30;;;;;;4998788;28;20565;-83
2023/08/15 02:11:37;;;;;;;4.60;4.20;;;25.00;69.30;;;;;;4998958;28;20220;-83
2023/08/15 02:14:04;;;;;;;4.85;4.45;;;25.00;69.30;;;;;;4998170;28;20643;-83
2023/08/15 02:16:32;;;;;;;5.35;4.60;;;25.00;69.30;;;;;;4998265;28;20662;-83
2023/08/15 02:19:00;;;;;;;4.60;4.20;;;25.00;69.30;;;;;;4998451;28;20569;-82
2023/08/15 02:21:26;;;;;;;5.05;4.55;;;24.90;69.20;;;;;;4998627;28;20327;-83
2023/08/15 02:23:53;;;;;;;4.70;4.22;;;24.90;69.20;;;;;;4997911;28;20220;-83
2023/08/15 02:26:21;;;;;;;4.85;4.10;;;24.90;69.20;;;;;;4997937;28;20287;-83
2023/08/15 02:28:48;;;;;;;5.07;4.35;;;24.90;69.30;;;;;;4998207;28;20205;-83
2023/08/15 02:31:15;;;;;;;4.50;4.10;;;24.90;69.20;;;;;;4998136;28;20224;-83
2023/08/15 02:33:44;;;;;;;4.65;4.13;;;24.90;69.30;;;;;;4998033;28;20238;-83
2023/08/15 02:36:11;;;;;;;4.30;3.90;;;24.90;69.20;;;;;;4998373;28;20319;-83
2023/08/15 02:38:38;;;;;;;4.55;4.07;;;24.90;69.30;;;;;;5003999;28;20212;-83
2023/08/15 02:41:06;;;;;;;4.90;4.50;;;24.90;69.20;;;;;;5014425;28;20218;-83
2023/08/15 02:43:33;;;;;;;6.40;4.50;;;24.90;70.00;;;;;;5013508;28;20232;-83
2023/08/15 02:46:00;;;;;;;4.78;4.00;;;24.80;69.10;;;;;;5010184;28;20196;-83
2023/08/15 02:48:27;;;;;;;4.82;4.30;;;24.90;69.20;;;;;;5002539;28;20320;-82
2023/08/15 02:50:56;;;;;;;4.85;4.20;;;24.90;69.20;;;;;;5001743;28;20687;-82
2023/08/15 02:53:23;;;;;;;5.68;4.60;;;24.90;69.20;;;;;;5000848;28;20192;-83
2023/08/15 02:55:51;;;;;;;4.45;4.05;;;24.90;70.00;;;;;;5001291;28;20204;-83
2023/08/15 02:58:19;;;;;;;5.45;4.15;;;24.80;69.00;;;;;;5000699;28;20250;-83
2023/08/15 03:00:46;;;;;;;5.13;4.65;;;24.90;69.20;;;;;;4998421;28;20760;-82
2023/08/15 03:03:15;;;;;;;4.38;4.07;;;24.90;69.30;;;;;;4998214;28;20223;-82
2023/08/15 03:05:42;;;;;;;4.85;4.35;;;24.80;68.90;;;;;;4997174;28;20206;-83
2023/08/15 03:08:11;;;;;;;4.75;4.38;;;24.80;69.10;;;;;;4997118;28;20254;-82
2023/08/15 03:10:39;;;;;;;4.45;4.15;;;24.80;68.90;;;;;;4996968;28;20557;-83
2023/08/15 03:13:06;;;;;;;4.90;4.50;;;24.90;69.30;;;;;;4996869;28;20255;-83
2023/08/15 03:15:35;;;;;;;4.70;4.30;;;24.90;69.10;;;;;;4997586;28;20708;-82
2023/08/15 03:18:02;;;;;;;4.68;4.10;;;24.90;69.00;;;;;;4997237;28;20581;-83
2023/08/15 03:20:30;;;;;;;4.65;4.25;;;24.90;69.00;;;;;;4997121;28;20302;-83
2023/08/15 03:22:58;;;;;;;4.55;4.15;;;24.90;68.80;;;;;;4997551;28;20196;-83
2023/08/15 03:25:26;;;;;;;4.85;4.45;;;25.00;68.60;;;;;;4997393;28;20216;-83
2023/08/15 03:27:55;;;;;;;5.32;4.22;;;25.10;68.30;;;;;;4999092;28;20220;-82
2023/08/15 03:30:22;;;;;;;5.05;4.07;;;25.10;68.20;;;;;;4981378;28;20216;-83
2023/08/15 03:32:50;;;;;;;5.10;4.60;;;25.20;67.90;;;;;;4997074;28;20283;-83
2023/08/15 03:35:18;;;;;;;4.45;4.05;;;25.20;67.70;;;;;;4980843;28;20229;-83
2023/08/15 03:37:45;;;;;;;4.75;4.28;;;25.20;67.60;;;;;;4998531;28;20701;-83
2023/08/15 03:40:12;;;;;;;4.65;4.22;;;25.20;67.50;;;;;;4997087;28;20271;-83
2023/08/15 03:42:41;;;;;;;4.68;4.20;;;25.20;67.40;;;;;;4997364;28;20202;-83
2023/08/15 03:45:09;;;;;;;4.45;3.88;;;25.30;67.40;;;;;;4996784;28;20279;-83
2023/08/15 03:47:36;;;;;;;6.63;4.47;;;25.30;67.30;;;;;;4981885;28;20227;-83
2023/08/15 03:50:04;;;;;;;4.15;3.85;;;25.30;67.20;;;;;;4966021;28;20307;-83
2023/08/15 03:52:32;;;;;;;4.55;3.88;;;25.30;67.30;;;;;;4997595;28;20250;-83
2023/08/15 03:55:00;;;;;;;4.25;3.85;;;25.30;67.20;;;;;;4993968;28;20192;-82
2023/08/15 03:57:27;;;;;;;4.55;3.88;;;25.30;67.10;;;;;;4997934;28;20200;-83
2023/08/15 03:59:56;;;;;;;5.47;4.20;;;25.30;67.10;;;;;;4981627;28;20264;-83
2023/08/15 04:02:23;;;;;;;4.13;3.83;;;25.30;67.00;;;;;;4997534;28;20200;-83
2023/08/15 04:04:50;;;;;;;4.50;4.10;;;25.30;67.00;;;;;;4998583;28;20223;-83
2023/08/15 04:07:17;;;;;;;5.22;3.92;;;25.30;67.00;;;;;;5002460;28;20204;-83
2023/08/15 04:09:45;;;;;;;4.53;4.13;;;25.30;67.00;;;;;;5002434;28;20208;-83
2023/08/15 04:12:11;;;;;;;4.47;3.97;;;25.30;66.70;;;;;;5001947;28;20222;-83
2023/08/15 04:14:39;;;;;;;4.35;3.95;;;25.30;66.80;;;;;;5001336;28;20543;-83
2023/08/15 04:17:07;;;;;;;4.50;4.10;;;25.30;66.80;;;;;;5000873;28;20283;-83
2023/08/15 04:19:35;;;;;;;5.40;4.20;;;25.30;66.70;;;;;;5000699;28;20196;-83
2023/08/15 04:22:02;;;;;;;4.20;3.90;;;25.40;66.70;;;;;;5000639;28;20307;-83
2023/08/15 04:24:29;;;;;;;4.22;3.83;;;25.40;66.50;;;;;;5000856;28;20212;-83
2023/08/15 04:26:57;;;;;;;4.22;3.83;;;25.40;66.40;;;;;;5000906;28;20291;-82
2023/08/15 04:29:24;;;;;;;5.25;4.20;;;25.40;66.20;;;;;;5001102;28;20208;-81
2023/08/15 04:31:51;;;;;;;4.82;4.30;;;25.40;66.30;;;;;;4985015;28;20222;-82
2023/08/15 04:34:20;;;;;;;5.60;3.92;;;25.30;66.20;;;;;;5000855;28;20254;-81
2023/08/15 04:36:48;;;;;;;4.18;3.80;;;25.30;66.30;;;;;;4999890;28;20232;-81
2023/08/15 04:39:15;;;;;;;4.97;3.97;;;25.30;66.20;;;;;;5000006;28;20202;-82
2023/08/15 04:41:43;;;;;;;7.82;4.45;;;25.30;66.30;;;;;;4999972;28;20244;-81
2023/08/15 04:44:11;;;;;;;5.85;4.35;;;25.20;66.80;;;;;;4986238;28;20219;-81
2023/08/15 04:46:38;;;;;;;5.15;4.70;;;25.20;66.90;;;;;;5001639;28;20212;-81
2023/08/15 04:49:05;;;;;;;5.72;4.72;;;25.00;67.70;;;;;;5005266;28;20184;-81
2023/08/15 04:51:34;;;;;;;6.47;4.90;;;24.80;68.70;;;;;;5023796;28;20216;-81
2023/08/15 04:54:01;;;;;;;6.75;4.90;;;24.60;69.50;;;;;;5023852;28;20219;-81
2023/08/15 04:56:28;;;;;;;5.82;5.00;;;24.50;69.60;;;;;;4988986;28;20254;-81
2023/08/15 04:58:55;;;;;;;6.50;4.80;;;24.50;69.80;;;;;;4999377;28;20211;-81
2023/08/15 05:01:22;;;;;;;7.95;4.60;;;24.50;70.10;;;;;;4998932;28;20213;-81
2023/08/15 05:03:49;;;;;;;8.55;5.22;;;24.40;70.40;;;;;;4999426;28;20196;-81
2023/08/15 05:06:16;;;;;;;6.78;5.10;;;24.30;71.00;;;;;;4982695;28;20254;-81
2023/08/15 05:08:45;;;;;;;5.75;4.88;;;24.20;71.70;;;;;;4998930;28;20693;-81
2023/08/15 05:11:12;;;;;;;7.63;4.72;;;24.20;71.70;;;;;;4998765;28;20239;-80
2023/08/15 05:13:40;;;;;;;9.48;5.00;;;24.30;71.60;;;;;;4998959;28;20562;-81
2023/08/15 05:16:07;;;;;;;5.80;5.10;;;24.20;71.70;;;;;;4982602;28;20220;-81
2023/08/15 05:18:35;;;;;;;7.65;4.93;;;24.30;72.90;;;;;;4997912;28;20202;-81
2023/08/15 05:21:02;;;;;;;4.88;4.40;;;24.20;72.10;;;;;;4999151;28;20208;-81
2023/08/15 05:23:29;;;;;;;4.57;4.18;;;24.20;71.70;;;;;;4999425;28;20193;-81
2023/08/15 05:25:58;;;;;;;5.50;4.38;;;24.30;71.00;;;;;;4999303;28;20220;-81
2023/08/15 05:28:25;;;;;;;5.68;4.10;;;24.40;70.50;;;;;;4998834;28;20751;-81
2023/08/15 05:30:53;;;;;;;4.97;4.47;;;24.50;70.00;;;;;;4998784;28;20311;-81
2023/08/15 05:33:21;;;;;;;4.65;4.25;;;24.70;69.70;;;;;;4999617;28;20203;-81
2023/08/15 05:35:49;;;;;;;4.28;3.90;;;24.80;69.40;;;;;;4998552;28;20200;-81
2023/08/15 05:38:16;;;;;;;6.90;4.30;;;25.00;68.90;;;;;;4999319;28;20195;-81
2023/08/15 05:40:43;;;;;;;4.45;4.13;;;25.10;68.40;;;;;;4998671;28;20298;-81
2023/08/15 05:43:11;;;;;;;4.30;4.00;;;25.30;68.10;;;;;;4998750;28;20192;-82
2023/08/15 05:45:39;;;;;;;4.68;4.22;;;25.40;67.60;;;;;;4980899;28;20223;-82
2023/08/15 05:48:07;;;;;;;4.45;3.97;;;25.60;67.10;;;;;;4997020;28;20201;-82
2023/08/15 05:50:34;;;;;;;4.10;3.80;;;25.70;66.60;;;;;;4996809;28;20224;-82
2023/08/15 05:53:01;;;;;;;4.45;4.10;;;25.90;65.90;;;;;;4997818;28;20207;-82
2023/08/15 05:55:28;;;;;;;6.05;3.78;;;26.00;65.20;;;;;;4982566;28;20188;-82
2023/08/15 05:57:55;;;;;;;4.78;4.07;;;26.10;64.70;;;;;;4998407;28;20662;-82
2023/08/15 06:00:24;;;;;;;4.47;3.83;;;26.20;64.40;;;;;;4999422;28;20223;-82
2023/08/15 06:02:51;;;;;;;5.97;3.90;;;26.30;64.10;;;;;;4998363;28;20204;-81
2023/08/15 06:05:18;;;;;;;4.45;4.05;;;26.30;63.90;;;;;;4998153;28;20216;-82
2023/08/15 06:07:45;;;;;;;4.15;3.83;;;26.30;63.80;;;;;;4998533;28;20206;-82
2023/08/15 06:10:13;;;;;;;5.25;4.15;;;26.30;63.80;;;;;;5016115;28;20192;-82
2023/08/15 06:12:41;;;;;;;4.38;3.88;;;26.30;63.90;;;;;;4998442;28;20199;-82
2023/08/15 06:15:08;;;;;;;4.40;4.10;;;26.20;63.90;;;;;;4998213;28;20697;-82
2023/08/15 06:17:37;;;;;;;4.57;4.10;;;26.20;64.00;;;;;;4998906;28;20552;-82
2023/08/15 06:20:05;;;;;;;4.00;3.70;;;26.20;64.10;;;;;;4998073;28;20196;-82
2023/08/15 06:22:32;;;;;;;4.30;4.00;;;26.20;64.30;;;;;;4982703;28;20211;-82
2023/08/15 06:24:59;;;;;;;4.32;3.75;;;26.20;64.20;;;;;;4997772;28;20216;-82
2023/08/15 06:27:26;;;;;;;3.97;3.67;;;26.20;64.10;;;;;;4997714;28;20250;-82
2023/08/15 06:29:53;;;;;;;4.25;3.78;;;26.30;63.80;;;;;;4997219;28;20200;-82
2023/08/15 06:32:27;;;;;;;4.13;3.83;;;26.30;63.70;;;;;;4997699;28;20192;-82
2023/08/15 06:34:55;;;;;;;4.13;3.83;;;26.40;63.40;;;;;;4997656;28;20597;-82
2023/08/15 06:37:23;;;;;;;4.07;3.78;;;26.40;63.10;;;;;;4997556;28;20259;-83
2023/08/15 06:39:50;;;;;;;4.45;4.05;;;26.40;63.00;;;;;;4981374;28;20250;-82
2023/08/15 06:42:17;;;;;;;4.07;3.78;;;26.40;63.00;;;;;;4981710;28;20329;-82
2023/08/15 06:44:44;;;;;;;3.63;3.33;;;26.50;63.10;;;;;;4997351;28;20197;-82
2023/08/15 06:47:11;;;;;;;4.20;3.80;;;26.50;62.90;;;;;;4997348;28;20195;-82
2023/08/15 06:49:39;;;;;;;4.10;3.80;;;26.50;62.80;;;;;;4997848;28;20258;-82
2023/08/15 06:52:08;;;;;;;4.25;3.85;;;26.60;62.60;;;;;;4998055;28;20226;-82
2023/08/15 06:54:36;;;;;;;3.80;3.50;;;26.70;62.20;;;;;;4998244;28;20206;-82
2023/08/15 06:57:03;;;;;;;3.67;3.47;;;26.80;61.80;;;;;;4997301;28;20258;-83
2023/08/15 06:59:35;;;;;;;4.03;3.50;;;26.90;61.20;;;;;;4997300;28;20254;-83
2023/08/15 07:02:02;;;;;;;3.90;3.60;;;27.10;60.70;;;;;;4997073;28;20224;-82
2023/08/15 07:04:30;;;;;;;4.15;3.85;;;27.20;60.30;;;;;;4997614;28;20204;-82
2023/08/15 07:06:58;;;;;;;3.75;3.45;;;27.20;60.10;;;;;;4997249;28;20280;-82
2023/08/15 07:09:28;;;;;;;4.05;3.75;;;27.20;60.40;;;;;;4997342;28;20207;-82
2023/08/15 07:11:56;;;;;;;3.70;3.40;;;27.20;60.00;;;;;;4997246;28;20318;-83
2023/08/15 07:14:23;;;;;;;4.00;3.70;;;27.30;59.90;;;;;;4997375;28;20643;-82
2023/08/15 07:16:50;;;;;;;3.60;3.30;;;27.40;59.80;;;;;;4998245;28;20211;-82
2023/08/15 07:19:17;;;;;;;3.30;3.03;;;27.40;59.40;;;;;;4997515;28;20204;-82
2023/08/15 07:21:45;;;;;;;3.50;3.20;;;27.50;59.20;;;;;;4997760;28;20589;-82
2023/08/15 07:24:12;;;;;;;3.95;3.58;;;27.70;59.00;;;;;;4999687;28;20658;-82
2023/08/15 07:26:41;;;;;;;3.70;3.40;;;27.70;58.70;;;;;;4999003;28;20226;-82
2023/08/15 07:29:08;;;;;;;4.13;3.47;;;27.80;58.60;;;;;;4999722;28;20196;-83
2023/08/15 07:31:35;;;;;;;3.50;3.30;;;27.80;59.00;;;;;;4998802;28;20219;-83
2023/08/15 07:34:02;;;;;;;3.72;3.42;;;27.80;58.30;;;;;;4997966;28;20210;-83
2023/08/15 07:36:32;;;;;;;3.90;3.60;;;27.90;58.30;;;;;;4999007;28;20206;-83
2023/08/15 07:38:59;;;;;;;4.10;3.30;;;27.90;58.20;;;;;;4997607;28;20200;-83
2023/08/15 07:41:26;;;;;;;3.78;3.45;;;28.00;58.00;;;;;;4999573;28;20219;-83
2023/08/15 07:43:55;;;;;;;3.65;3.45;;;28.00;57.80;;;;;;5001310;28;20565;-83
2023/08/15 07:46:22;;;;;;;3.70;3.40;;;28.20;57.50;;;;;;5001176;28;20646;-83
2023/08/15 07:48:50;;;;;;;3.60;3.30;;;28.20;57.40;;;;;;5001012;28;20196;-82
2023/08/15 07:51:17;;;;;;;3.60;3.30;;;28.30;57.20;;;;;;5001214;28;20219;-82
2023/08/15 07:53:44;;;;;;;3.70;3.40;;;28.40;57.10;;;;;;5001159;28;20567;-83
2023/08/15 07:56:11;;;;;;;3.50;3.30;;;28.40;56.80;;;;;;5000797;28;20669;-83
2023/08/15 07:58:38;;;;;;;4.13;3.42;;;28.50;56.70;;;;;;5000577;28;20203;-83
2023/08/15 08:01:06;;;;;;;3.72;3.42;;;28.60;56.40;;;;;;5000770;28;20215;-83
2023/08/15 08:03:38;;;;;;;3.40;3.20;;;28.70;56.40;;;;;;5001962;28;20565;-83
2023/08/15 08:06:05;;;;;;;3.30;3.10;;;28.70;56.30;;;;;;4986301;28;20227;-83
2023/08/15 08:08:32;;;;;;;3.38;3.17;;;28.70;56.20;;;;;;5020029;28;20192;-83
2023/08/15 08:10:59;;;;;;;3.58;3.28;;;28.80;56.00;;;;;;5002937;28;20243;-83
2023/08/15 08:13:26;;;;;;;3.40;3.10;;;28.80;56.00;;;;;;5002299;28;20192;-83
2023/08/15 08:15:53;;;;;;;3.40;3.20;;;28.70;56.10;;;;;;5001909;28;20258;-83
2023/08/15 08:18:22;;;;;;;3.25;3.05;;;28.70;56.40;;;;;;5001073;28;20334;-83
2023/08/15 08:20:49;;;;;;;3.72;3.42;;;28.50;56.40;;;;;;5001756;28;20311;-83
2023/08/15 08:23:16;;;;;;;3.60;3.30;;;28.50;56.60;;;;;;5000863;28;20207;-83
2023/08/15 08:25:45;;;;;;;3.50;3.20;;;28.40;56.90;;;;;;5000068;28;20208;-83
2023/08/15 08:28:12;;;;;;;3.30;3.10;;;28.30;57.10;;;;;;5001099;28;20247;-82
2023/08/15 08:30:40;;;;;;;3.85;3.55;;;28.30;57.20;;;;;;5000875;28;20235;-82
2023/08/15 08:33:09;;;;;;;3.22;3.03;;;28.20;57.30;;;;;;5000399;28;20203;-83
2023/08/15 08:35:37;;;;;;;3.22;3.03;;;28.20;57.50;;;;;;5000372;28;20255;-83
2023/08/15 08:38:05;;;;;;;3.80;3.50;;;28.10;57.50;;;;;;4999782;28;20196;-83
2023/08/15 08:40:32;;;;;;;3.78;3.47;;;28.00;57.70;;;;;;5000317;28;20267;-83
2023/08/15 08:42:59;;;;;;;3.00;2.80;;;28.00;57.90;;;;;;4999917;28;20258;-83
2023/08/15 08:45:27;;;;;;;3.45;3.25;;;28.00;58.00;;;;;;5000201;28;20286;-82
2023/08/15 08:47:54;;;;;;;3.33;3.13;;;27.90;58.00;;;;;;5000650;28;20203;-82
2023/08/15 08:50:21;;;;;;;3.70;3.40;;;28.00;57.90;;;;;;5001114;28;20216;-83
2023/08/15 08:52:50;;;;;;;3.47;3.17;;;28.10;57.80;;;;;;5000417;28;20231;-82
2023/08/15 08:55:18;;;;;;;3.22;3.03;;;28.10;57.60;;;;;;5000831;28;20283;-83
2023/08/15 08:57:46;;;;;;;3.40;3.10;;;28.20;57.50;;;;;;4986026;28;20192;-83
2023/08/15 09:00:14;;;;;;;3.28;3.08;;;28.30;57.30;;;;;;5000875;28;20287;-83
2023/08/15 09:02:41;;;;;;;3.55;3.35;;;28.40;56.90;;;;;;5001929;28;20206;-83
2023/08/15 09:05:09;;;;;;;3.13;2.92;;;28.60;56.50;;;;;;5022708;28;20195;-83
2023/08/15 09:07:36;;;;;;;4.13;3.00;;;28.70;56.40;;;;;;5023968;28;20288;-83
2023/08/15 09:10:06;;;;;;;3.40;3.20;;;28.70;56.40;;;;;;5019482;28;20192;-83
2023/08/15 09:12:37;;;;;;;3.55;3.30;;;28.60;56.40;;;;;;5004617;28;20200;-83
2023/08/15 09:15:05;;;;;;;3.53;3.22;;;28.50;56.60;;;;;;5004398;28;20224;-82
2023/08/15 09:17:32;;;;;;;3.50;3.30;;;28.50;56.80;;;;;;5003879;28;20193;-83
2023/08/15 09:20:09;;;;;;;3.33;3.13;;;28.40;57.00;;;;;;5002806;28;20298;-83
2023/08/15 09:22:37;;;;;;;3.22;3.03;;;28.30;57.10;;;;;;5003352;28;20192;-83
2023/08/15 09:25:07;;;;;;;3.25;3.05;;;28.30;57.10;;;;;;5001236;28;20200;-83
2023/08/15 09:27:34;;;;;;;3.38;3.17;;;28.40;57.00;;;;;;4999057;28;20226;-83
2023/08/15 09:30:08;;;;;;;3.08;2.88;;;28.50;56.70;;;;;;4999825;28;20204;-83
2023/08/15 09:32:35;;;;;;;3.22;3.03;;;28.60;56.30;;;;;;4999316;28;20253;-82
2023/08/15 09:35:03;;;;;;;3.15;2.90;;;28.70;56.40;;;;;;4998806;28;20206;-83
2023/08/15 09:37:29;;;;;;;3.28;3.00;;;28.70;56.10;;;;;;5001589;28;20187;-83
2023/08/15 09:39:57;;;;;;;3.60;3.30;;;28.80;56.10;;;;;;5001923;28;20204;-82
2023/08/15 09:42:30;;;;;;;3.30;3.10;;;28.70;56.10;;;;;;5001876;28;20200;-83
2023/08/15 09:44:57;;;;;;;3.47;3.28;;;28.70;56.20;;;;;;5001764;28;20193;-83
2023/08/15 09:47:24;;;;;;;3.72;3.45;;;28.70;56.40;;;;;;5001662;28;20682;-83
2023/08/15 09:49:52;;;;;;;3.25;3.05;;;28.60;56.50;;;;;;5002782;28;20643;-83
2023/08/15 09:52:19;;;;;;;3.40;3.10;;;28.50;56.80;;;;;;5001522;28;20230;-83
2023/08/15 09:54:47;;;;;;;3.65;3.35;;;28.40;56.90;;;;;;5001059;28;20287;-83
2023/08/15 09:57:14;;;;;;;4.07;3.20;;;28.40;57.00;;;;;;4982837;28;20204;-83
2023/08/15 09:59:42;;;;;;;3.38;3.08;;;28.30;57.20;;;;;;5015380;28;20550;-83
2023/08/15 10:02:14;;;;;;;3.30;3.00;;;28.30;57.20;;;;;;4999024;28;20219;-83
2023/08/15 10:04:41;;;;;;;3.45;3.25;;;28.20;57.30;;;;;;4998424;28;20196;-83
2023/08/15 10:07:09;;;;;;;3.13;2.92;;;28.20;57.90;;;;;;4999118;28;20674;-83
2023/08/15 10:09:36;;;;;;;3.30;3.10;;;28.20;57.30;;;;;;4998632;28;20200;-83
2023/08/15 10:12:03;;;;;;;3.40;3.20;;;28.30;57.20;;;;;;4998220;28;20740;-83
2023/08/15 10:14:30;;;;;;;3.30;3.10;;;28.30;57.20;;;;;;4998383;28;20196;-83
2023/08/15 10:16:59;;;;;;;3.00;2.80;;;28.30;57.20;;;;;;4998764;28;20200;-82
2023/08/15 10:19:29;;;;;;;3.33;3.03;;;28.20;57.20;;;;;;4998218;28;20211;-83
2023/08/15 10:21:56;;;;;;;3.10;2.90;;;28.20;57.30;;;;;;4998284;28;20319;-83
2023/08/15 10:24:23;;;;;;;3.28;3.08;;;28.20;57.40;;;;;;4997921;28;20195;-83
2023/08/15 10:26:51;;;;;;;3.20;3.00;;;28.20;57.50;;;;;;4997818;28;20216;-83
2023/08/15 10:29:18;;;;;;;3.20;3.00;;;28.10;57.50;;;;;;4997618;28;20708;-83
2023/08/15 10:31:45;;;;;;;3.03;2.83;;;28.10;57.60;;;;;;4998515;28;20289;-83
2023/08/15 10:34:14;;;;;;;2.95;2.75;;;28.00;57.60;;;;;;4998106;28;20269;-82
2023/08/15 10:36:42;;;;;;;3.10;2.90;;;28.00;57.70;;;;;;4997368;28;20204;-82
2023/08/15 10:39:09;;;;;;;3.17;2.97;;;27.90;57.80;;;;;;4997509;28;20660;-82
2023/08/15 10:41:37;;;;;;;3.10;2.90;;;27.90;58.00;;;;;;4997747;28;20642;-83
2023/08/15 10:44:06;;;;;;;3.10;2.90;;;27.90;58.00;;;;;;4998176;28;20207;-83
2023/08/15 10:46:33;;;;;;;2.97;2.78;;;27.90;58.10;;;;;;4997559;28;20285;-83
2023/08/15 10:49:01;;;;;;;2.92;2.72;;;27.90;58.10;;;;;;4997385;28;20200;-82
2023/08/15 10:51:31;;;;;;;3.10;2.90;;;27.90;58.20;;;;;;4997245;28;20724;-83
2023/08/15 10:53:59;;;;;;;3.22;3.03;;;27.90;58.20;;;;;;4997173;28;20200;-83
2023/08/15 10:56:27;;;;;;;3.15;2.95;;;27.90;58.20;;;;;;4997646;28;20220;-83
2023/08/15 10:58:54;;;;;;;3.20;3.00;;;27.90;58.10;;;;;;4997666;28;20231;-83
2023/08/15 11:01:22;;;;;;;3.03;2.83;;;27.90;58.20;;;;;;4997317;28;20220;-83
2023/08/15 11:03:50;;;;;;;3.20;3.00;;;27.90;58.20;;;;;;4998323;28;20184;-82
2023/08/15 11:06:16;;;;;;;3.00;2.80;;;27.90;58.20;;;;;;4997047;28;20643;-83
2023/08/15 11:08:48;;;;;;;3.25;3.05;;;27.90;58.20;;;;;;4997106;28;20200;-82
2023/08/15 11:11:16;;;;;;;3.10;2.90;;;27.90;58.20;;;;;;4996652;28;20266;-83
2023/08/15 11:13:45;;;;;;;3.17;2.97;;;27.90;58.00;;;;;;4997171;28;20282;-83
2023/08/15 11:16:15;;;;;;;3.20;3.00;;;28.00;58.10;;;;;;4997242;28;20196;-83
2023/08/15 11:18:42;;;;;;;3.03;2.83;;;28.00;58.10;;;;;;4997774;28;20206;-83
2023/08/15 11:21:11;;;;;;;2.92;2.72;;;27.90;58.00;;;;;;4996914;28;20238;-82
2023/08/15 11:23:38;;;;;;;3.05;2.85;;;28.00;58.00;;;;;;4996936;28;20200;-83
2023/08/15 11:26:07;;;;;;;3.20;3.00;;;28.00;57.80;;;;;;4997021;28;20196;-82
2023/08/15 11:28:35;;;;;;;3.20;3.00;;;28.00;57.70;;;;;;4997359;28;20228;-82
2023/08/15 11:31:02;;;;;;;2.90;2.70;;;27.90;57.80;;;;;;4998595;28;20286;-83
2023/08/15 11:33:29;;;;;;;2.80;2.60;;;27.90;57.80;;;;;;4982690;28;20200;-82
2023/08/15 11:35:59;;;;;;;2.90;2.70;;;28.00;58.00;;;;;;5002140;28;20199;-82
2023/08/15 11:38:28;;;;;;;3.13;2.92;;;28.00;57.90;;;;;;4998922;28;20200;-83
2023/08/15 11:40:55;;;;;;;2.90;2.70;;;28.00;57.90;;;;;;4997525;28;20220;-82
2023/08/15 11:43:23;;;;;;;2.97;2.78;;;28.00;57.90;;;;;;4997926;28;20206;-83
2023/08/15 11:45:50;;;;;;;3.00;2.80;;;28.00;57.90;;;;;;4997615;28;20299;-83
2023/08/15 11:48:18;;;;;;;2.90;2.70;;;28.00;57.90;;;;;;4997487;28;20314;-83
2023/08/15 11:50:45;;;;;;;2.78;2.58;;;28.00;57.90;;;;;;4997523;28;20254;-82
2023/08/15 11:53:13;;;;;;;3.08;2.85;;;28.00;57.90;;;;;;4997318;28;20195;-82
2023/08/15 11:55:40;;;;;;;3.00;2.80;;;28.00;58.00;;;;;;4997187;28;20192;-82
2023/08/15 11:58:23;;;;;;;2.80;2.60;;;28.00;58.00;;;;;;4996909;28;20204;-83
2023/08/15 12:00:58;;;;;;;3.03;2.83;;;28.00;58.10;;;;;;4982028;28;20220;-83
2023/08/15 12:03:27;;;;;;;2.70;2.50;;;28.00;58.10;;;;;;4997192;28;20210;-82
2023/08/15 12:05:55;;;;;;;3.17;2.97;;;28.00;58.10;;;;;;4997160;28;20204;-83
2023/08/15 12:08:23;;;;;;;2.78;2.60;;;28.00;58.10;;;;;;4996543;28;20270;-82
2023/08/15 12:10:52;;;;;;;2.78;2.58;;;28.00;58.10;;;;;;4996735;28;20222;-82
2023/08/15 12:13:29;;;;;;;3.10;2.90;;;28.00;58.10;;;;;;4996483;28;20207;-82
2023/08/15 12:15:56;;;;;;;3.30;3.10;;;28.00;58.10;;;;;;4996860;28;20199;-83
2023/08/15 12:18:24;;;;;;;2.95;2.75;;;28.00;58.00;;;;;;4980530;28;20215;-83
2023/08/15 12:20:51;;;;;;;2.97;2.67;;;28.00;58.10;;;;;;4980875;28;20243;-82
2023/08/15 12:23:18;;;;;;;2.97;2.78;;;28.00;58.00;;;;;;4996650;28;20200;-83
2023/08/15 12:25:45;;;;;;;2.90;2.70;;;28.00;58.10;;;;;;4980393;28;20207;-83
2023/08/15 12:28:13;;;;;;;2.70;2.50;;;28.00;58.10;;;;;;5000452;28;20314;-82
2023/08/15 12:30:42;;;;;;;2.90;2.70;;;28.00;58.10;;;;;;5000157;28;20255;-83
2023/08/15 12:33:09;;;;;;;2.92;2.72;;;28.00;58.10;;;;;;5000128;28;20230;-83
2023/08/15 12:35:36;;;;;;;2.80;2.60;;;28.00;58.10;;;;;;4999912;28;20299;-83
2023/08/15 12:38:03;;;;;;;2.80;2.60;;;28.00;58.10;;;;;;5000266;28;20203;-83
2023/08/15 12:40:31;;;;;;;2.90;2.70;;;28.00;58.10;;;;;;5000130;28;20266;-83
2023/08/15 12:42:58;;;;;;;2.88;2.67;;;28.00;58.20;;;;;;4983613;28;20196;-82
2023/08/15 12:45:25;;;;;;;2.97;2.78;;;28.00;58.10;;;;;;5000202;28;20228;-82
2023/08/15 12:47:54;;;;;;;3.00;2.80;;;28.00;58.10;;;;;;5000166;28;20224;-83
2023/08/15 12:50:22;;;;;;;2.88;2.67;;;28.00;58.20;;;;;;4999750;28;20630;-82